createdAt,value
2023-05-01T00:01:11.060Z,97089.50
2023-05-01T00:03:56.887Z,97084.88
2023-05-01T00:06:42.032Z,97082.72
2023-05-01T00:09:27.324Z,97089.25
2023-05-01T00:12:12.740Z,97079.69
2023-05-01T00:14:57.838Z,97083.75
2023-05-01T00:17:43.060Z,97079.22
2023-05-01T00:20:28.436Z,97071.25
2023-05-01T00:23:13.747Z,97070.78
2023-05-01T00:25:58.976Z,97058.78
2023-05-01T00:28:44.263Z,97065.94
2023-05-01T00:31:29.799Z,97052.06
2023-05-01T00:34:14.870Z,97051.50
2023-05-01T00:37:00.330Z,97055.00
2023-05-01T00:39:45.665Z,97052.78
2023-05-01T00:42:31.135Z,97046.81
2023-05-01T00:45:16.171Z,97043.53
2023-05-01T00:48:01.585Z,97044.66
2023-05-01T00:50:46.868Z,97031.66
2023-05-01T00:53:32.227Z,97027.88
2023-05-01T00:56:17.448Z,97025.41
2023-05-01T00:59:02.945Z,97022.41
2023-05-01T01:01:47.980Z,97018.91
2023-05-01T01:04:33.480Z,97022.34
2023-05-01T01:07:18.630Z,97017.16
2023-05-01T01:10:06.988Z,97010.63
2023-05-01T01:12:52.361Z,97016.06
2023-05-01T01:15:37.578Z,97007.88
2023-05-01T01:18:23.039Z,97014.66
2023-05-01T01:21:08.410Z,97010.63
2023-05-01T01:23:53.648Z,97004.38
2023-05-01T01:26:39.088Z,97012.53
2023-05-01T01:29:24.468Z,97013.63
2023-05-01T01:32:09.922Z,97012.81
2023-05-01T01:34:55.183Z,97016.81
2023-05-01T01:37:40.574Z,97013.56
2023-05-01T01:40:26.097Z,97022.63
2023-05-01T01:43:11.476Z,97017.44
2023-05-01T01:45:56.722Z,97014.97
2023-05-01T01:48:42.003Z,97014.09
2023-05-01T01:51:27.509Z,97016.84
2023-05-01T01:54:12.767Z,97014.44
2023-05-01T01:56:58.082Z,97012.53
2023-05-01T01:59:43.618Z,97017.94
2023-05-01T02:02:29.140Z,97005.22
2023-05-01T02:05:14.559Z,97003.28
2023-05-01T02:07:59.765Z,97003.34
2023-05-01T02:10:45.184Z,97006.31
2023-05-01T02:13:30.441Z,97010.16
2023-05-01T02:16:15.542Z,97009.34
2023-05-01T02:19:01.096Z,97006.66
2023-05-01T02:21:46.281Z,97004.44
2023-05-01T02:24:31.302Z,96994.63
2023-05-01T02:27:16.611Z,97002.03
2023-05-01T02:30:01.925Z,96994.03
2023-05-01T02:32:47.507Z,96992.69
2023-05-01T02:35:32.597Z,96993.81
2023-05-01T02:38:17.756Z,96990.69
2023-05-01T02:41:03.053Z,96998.94
2023-05-01T02:43:48.498Z,96991.09
2023-05-01T02:46:34.088Z,96993.31
2023-05-01T02:49:19.414Z,96993.00
2023-05-01T02:52:04.727Z,96988.09
2023-05-01T02:54:50.057Z,96993.22
2023-05-01T02:57:37.837Z,96990.03
2023-05-01T03:00:22.928Z,96985.44
2023-05-01T03:03:08.360Z,96986.16
2023-05-01T03:05:53.886Z,96990.56
2023-05-01T03:08:39.222Z,96984.28
2023-05-01T03:11:24.767Z,96981.03
2023-05-01T03:14:10.207Z,96981.28
2023-05-01T03:16:55.528Z,96978.84
2023-05-01T03:19:41.039Z,96975.09
2023-05-01T03:22:26.426Z,96980.25
2023-05-01T03:25:11.907Z,96970.53
2023-05-01T03:27:57.197Z,96970.13
2023-05-01T03:30:42.567Z,96973.97
2023-05-01T03:33:28.120Z,96974.56
2023-05-01T03:36:14.509Z,96972.59
2023-05-01T03:38:59.867Z,96975.28
2023-05-01T03:41:45.138Z,96974.50
2023-05-01T03:44:30.421Z,96968.53
2023-05-01T03:47:18.808Z,96971.78
2023-05-01T03:50:04.092Z,96971.03
2023-05-01T03:52:49.534Z,96976.16
2023-05-01T03:55:34.772Z,96974.56
2023-05-01T03:58:20.064Z,96971.22
2023-05-01T04:01:05.431Z,96981.03
2023-05-01T04:03:50.955Z,96978.31
2023-05-01T04:06:36.444Z,96982.97
2023-05-01T04:09:21.765Z,96974.81
2023-05-01T04:12:08.576Z,96970.47
2023-05-01T04:14:53.870Z,96983.53
2023-05-01T04:17:39.320Z,96979.53
2023-05-01T04:20:24.950Z,96978.66
2023-05-01T04:23:10.275Z,96980.06
2023-05-01T04:25:55.616Z,96979.97
2023-05-01T04:28:41.139Z,96978.34
2023-05-01T04:31:26.542Z,96980.22
2023-05-01T04:34:11.994Z,96979.22
2023-05-01T04:36:57.352Z,96983.59
2023-05-01T04:39:42.911Z,96987.16
2023-05-01T04:42:28.201Z,96990.13
2023-05-01T04:45:13.401Z,96983.28
2023-05-01T04:47:58.993Z,96995.81
2023-05-01T04:50:44.189Z,96996.91
2023-05-01T04:53:29.669Z,96991.53
2023-05-01T04:56:15.193Z,96998.22
2023-05-01T04:59:00.482Z,96996.94
2023-05-01T05:01:46.098Z,96999.88
2023-05-01T05:04:31.294Z,97001.53
2023-05-01T05:07:16.590Z,96998.56
2023-05-01T05:10:01.863Z,96997.72
2023-05-01T05:12:47.184Z,97009.44
2023-05-01T05:15:32.661Z,97017.09
2023-05-01T05:18:17.979Z,97014.91
2023-05-01T05:21:03.499Z,97017.69
2023-05-01T05:23:48.669Z,97019.81
2023-05-01T05:26:34.066Z,97015.44
2023-05-01T05:29:19.802Z,97019.28
2023-05-01T05:32:07.514Z,97009.97
2023-05-01T05:34:52.833Z,97011.09
2023-05-01T05:37:38.082Z,97017.66
2023-05-01T05:40:23.710Z,97019.31
2023-05-01T05:43:09.101Z,97027.75
2023-05-01T05:45:55.707Z,97027.25
2023-05-01T05:48:40.956Z,97027.78
2023-05-01T05:51:26.144Z,97026.78
2023-05-01T05:54:11.756Z,97023.78
2023-05-01T05:56:57.229Z,97024.81
2023-05-01T05:59:42.621Z,97022.34
2023-05-01T06:02:28.205Z,97025.66
2023-05-01T06:05:13.677Z,97022.22
2023-05-01T06:07:59.067Z,97022.38
2023-05-01T06:10:44.500Z,97024.66
2023-05-01T06:13:30.376Z,97018.44
2023-05-01T06:16:15.869Z,97013.47
2023-05-01T06:19:01.134Z,97013.41
2023-05-01T06:21:46.732Z,97019.72
2023-05-01T06:24:32.058Z,97021.41
2023-05-01T06:27:17.401Z,97022.69
2023-05-01T06:30:02.806Z,97021.56
2023-05-01T06:32:48.146Z,97028.09
2023-05-01T06:35:33.439Z,97028.63
2023-05-01T06:38:18.669Z,97036.19
2023-05-01T06:41:03.711Z,97034.63
2023-05-01T06:43:49.092Z,97032.53
2023-05-01T06:46:34.452Z,97038.84
2023-05-01T06:49:19.980Z,97040.16
2023-05-01T06:52:05.364Z,97034.38
2023-05-01T06:54:50.751Z,97034.41
2023-05-01T06:57:36.277Z,97034.50
2023-05-01T07:00:21.656Z,97044.03
2023-05-01T07:03:07.216Z,97047.19
2023-05-01T07:05:52.210Z,97047.78
2023-05-01T07:08:37.498Z,97051.34
2023-05-01T07:11:22.878Z,97043.34
2023-05-01T07:14:08.168Z,97044.78
2023-05-01T07:16:53.548Z,97046.31
2023-05-01T07:19:38.456Z,97051.34
2023-05-01T07:22:23.839Z,97055.91
2023-05-01T07:25:08.945Z,97062.88
2023-05-01T07:27:54.326Z,97069.44
2023-05-01T07:30:39.811Z,97078.50
2023-05-01T07:33:25.177Z,97080.34
2023-05-01T07:36:10.522Z,97080.72
2023-05-01T07:38:55.603Z,97080.69
2023-05-01T07:41:41.051Z,97079.63
2023-05-01T07:44:26.464Z,97085.88
2023-05-01T07:47:11.930Z,97090.81
2023-05-01T07:49:58.824Z,97089.22
2023-05-01T07:52:43.822Z,97077.50
2023-05-01T07:55:29.271Z,97074.00
2023-05-01T07:58:14.626Z,97077.22
2023-05-01T08:00:59.719Z,97076.31
2023-05-01T08:03:45.064Z,97079.03
2023-05-01T08:06:30.343Z,97077.41
2023-05-01T08:09:15.778Z,97079.66
2023-05-01T08:12:01.033Z,97072.59
2023-05-01T08:14:46.306Z,97075.84
2023-05-01T08:17:31.666Z,97082.53
2023-05-01T08:20:17.070Z,97071.56
2023-05-01T08:23:02.402Z,97078.47
2023-05-01T08:25:47.659Z,97080.50
2023-05-01T08:28:33.117Z,97083.84
2023-05-01T08:31:18.500Z,97096.59
2023-05-01T08:34:04.097Z,97089.47
2023-05-01T08:36:49.528Z,97100.91
2023-05-01T08:39:34.788Z,97101.97
2023-05-01T08:42:20.328Z,97106.63
2023-05-01T08:45:05.684Z,97117.34
2023-05-01T08:47:50.998Z,97111.88
2023-05-01T08:50:36.292Z,97112.19
2023-05-01T08:53:21.525Z,97105.88
2023-05-01T08:56:06.982Z,97103.09
2023-05-01T08:58:52.466Z,97104.78
2023-05-01T09:01:37.990Z,97110.75
2023-05-01T09:04:23.295Z,97117.03
2023-05-01T09:07:08.436Z,97123.28
2023-05-01T09:09:54.026Z,97122.22
2023-05-01T09:12:39.154Z,97114.34
2023-05-01T09:15:24.714Z,97129.28
2023-05-01T09:18:10.061Z,97130.09
2023-05-01T09:20:55.500Z,97127.38
2023-05-01T09:23:40.743Z,97121.94
2023-05-01T09:26:26.140Z,97126.03
2023-05-01T09:29:11.652Z,97133.00
2023-05-01T09:31:56.995Z,97129.56
2023-05-01T09:34:42.234Z,97135.03
2023-05-01T09:37:27.456Z,97129.81
2023-05-01T09:40:12.919Z,97135.31
2023-05-01T09:42:58.277Z,97130.69
2023-05-01T09:45:43.725Z,97135.03
2023-05-01T09:48:29.080Z,97140.19
2023-05-01T09:51:14.512Z,97141.81
2023-05-01T09:54:00.066Z,97147.78
2023-05-01T09:56:45.426Z,97148.06
2023-05-01T09:59:30.868Z,97143.94
2023-05-01T10:02:16.346Z,97147.00
2023-05-01T10:05:01.561Z,97141.59
2023-05-01T10:07:47.013Z,97142.09
2023-05-01T10:10:32.278Z,97140.00
2023-05-01T10:13:17.628Z,97153.34
2023-05-01T10:16:03.127Z,97161.53
2023-05-01T10:18:48.508Z,97168.06
2023-05-01T10:21:34.071Z,97165.34
2023-05-01T10:24:19.269Z,97172.06
2023-05-01T10:27:04.807Z,97167.78
2023-05-01T10:29:50.244Z,97168.56
2023-05-01T10:32:35.468Z,97160.59
2023-05-01T10:35:20.802Z,97162.28
2023-05-01T10:38:06.076Z,97152.91
2023-05-01T10:40:51.341Z,97159.38
2023-05-01T10:43:38.992Z,97168.66
2023-05-01T10:46:24.176Z,97167.34
2023-05-01T10:49:09.557Z,97170.19
2023-05-01T10:51:54.728Z,97159.91
2023-05-01T10:54:40.104Z,97170.81
2023-05-01T10:57:25.377Z,97166.16
2023-05-01T11:00:10.840Z,97167.53
2023-05-01T11:02:56.335Z,97162.03
2023-05-01T11:05:41.567Z,97167.25
2023-05-01T11:08:27.193Z,97170.22
2023-05-01T11:11:15.340Z,97170.75
2023-05-01T11:14:00.644Z,97171.59
2023-05-01T11:16:46.358Z,97165.97
2023-05-01T11:19:31.290Z,97177.19
2023-05-01T11:22:16.843Z,97169.31
2023-05-01T11:25:02.163Z,97161.88
2023-05-01T11:27:50.434Z,97158.53
2023-05-01T11:30:35.774Z,97159.31
2023-05-01T11:33:24.444Z,97162.06
2023-05-01T11:36:10.254Z,97158.81
2023-05-01T11:38:55.601Z,97164.50
2023-05-01T11:41:40.902Z,97158.22
2023-05-01T11:44:26.020Z,97158.84
2023-05-01T11:47:11.158Z,97155.63
2023-05-01T11:49:56.549Z,97161.22
2023-05-01T11:52:41.958Z,97158.38
2023-05-01T11:55:27.251Z,97153.38
2023-05-01T11:58:12.797Z,97152.25
2023-05-01T12:00:58.245Z,97146.19
2023-05-01T12:03:43.841Z,97147.38
2023-05-01T12:06:29.036Z,97135.47
2023-05-01T12:09:14.084Z,97139.31
2023-05-01T12:11:59.399Z,97140.84
2023-05-01T12:14:44.571Z,97145.38
2023-05-01T12:17:30.265Z,97146.38
2023-05-01T12:20:15.515Z,97140.69
2023-05-01T12:23:00.695Z,97139.78
2023-05-01T12:25:46.158Z,97147.38
2023-05-01T12:28:31.555Z,97140.91
2023-05-01T12:31:17.105Z,97143.69
2023-05-01T12:34:02.471Z,97138.69
2023-05-01T12:36:47.324Z,97142.25
2023-05-01T12:39:32.808Z,97136.06
2023-05-01T12:42:18.090Z,97144.13
2023-05-01T12:45:08.002Z,97136.91
2023-05-01T12:47:53.343Z,97141.19
2023-05-01T12:50:38.508Z,97146.66
2023-05-01T12:53:23.980Z,97143.44
2023-05-01T12:56:09.416Z,97145.25
2023-05-01T12:58:54.947Z,97144.47
2023-05-01T13:01:40.516Z,97141.53
2023-05-01T13:04:25.792Z,97149.16
2023-05-01T13:07:14.055Z,97152.09
2023-05-01T13:09:59.742Z,97153.16
2023-05-01T13:12:44.902Z,97152.56
2023-05-01T13:15:30.338Z,97157.06
2023-05-01T13:18:15.790Z,97148.22
2023-05-01T13:21:00.994Z,97150.94
2023-05-01T13:23:46.359Z,97150.97
2023-05-01T13:26:31.731Z,97149.44
2023-05-01T13:29:17.119Z,97148.66
2023-05-01T13:32:02.396Z,97138.28
2023-05-01T13:34:47.806Z,97141.91
2023-05-01T13:37:33.087Z,97136.38
2023-05-01T13:40:18.731Z,97121.34
2023-05-01T13:43:04.121Z,97108.28
2023-05-01T13:45:49.501Z,97108.50
2023-05-01T13:48:34.866Z,97110.75
2023-05-01T13:51:20.156Z,97108.44
2023-05-01T13:54:05.536Z,97109.47
2023-05-01T13:56:50.853Z,97112.44
2023-05-01T13:59:36.016Z,97109.91
2023-05-01T14:02:21.221Z,97113.31
2023-05-01T14:05:06.818Z,97100.59
2023-05-01T14:07:52.238Z,97105.06
2023-05-01T14:10:37.318Z,97106.25
2023-05-01T14:13:22.803Z,97103.84
2023-05-01T14:16:08.200Z,97096.50
2023-05-01T14:18:53.445Z,97098.78
2023-05-01T14:21:38.769Z,97097.56
2023-05-01T14:24:24.087Z,97102.66
2023-05-01T14:27:09.490Z,97086.53
2023-05-01T14:29:55.137Z,97092.94
2023-05-01T14:32:40.842Z,97094.56
2023-05-01T14:35:26.614Z,97109.72
2023-05-01T14:38:14.147Z,97110.22
2023-05-01T14:41:00.038Z,97104.72
2023-05-01T14:43:47.991Z,97105.22
2023-05-01T14:46:34.383Z,97098.59
2023-05-01T14:49:21.011Z,97092.88
2023-05-01T14:52:09.417Z,97092.59
2023-05-01T14:54:54.945Z,97098.50
2023-05-01T14:57:40.808Z,97100.22
2023-05-01T15:00:26.574Z,97097.44
2023-05-01T15:03:12.113Z,97103.22
2023-05-01T15:06:00.719Z,97108.44
2023-05-01T15:08:46.482Z,97103.38
2023-05-01T15:11:34.056Z,97117.41
2023-05-01T15:14:20.900Z,97115.47
2023-05-01T15:17:06.088Z,97117.31
2023-05-01T15:19:52.042Z,97120.22
2023-05-01T15:22:41.053Z,97118.56
2023-05-01T15:25:26.500Z,97119.47
2023-05-01T15:28:11.731Z,97105.88
2023-05-01T15:30:57.258Z,97118.41
2023-05-01T15:33:42.746Z,97118.63
2023-05-01T15:36:28.040Z,97119.25
2023-05-01T15:39:13.231Z,97119.06
2023-05-01T15:41:58.615Z,97121.41
2023-05-01T15:44:43.781Z,97127.97
2023-05-01T15:47:30.893Z,97121.53
2023-05-01T15:50:16.269Z,97123.25
2023-05-01T15:53:01.790Z,97120.56
2023-05-01T15:55:47.022Z,97116.56
2023-05-01T15:58:32.441Z,97125.69
2023-05-01T16:01:18.113Z,97127.34
2023-05-01T16:04:03.891Z,97126.16
2023-05-01T16:06:49.243Z,97120.63
2023-05-01T16:09:34.533Z,97128.91
2023-05-01T16:12:19.919Z,97123.63
2023-05-01T16:15:05.251Z,97122.59
2023-05-01T16:17:50.782Z,97116.56
2023-05-01T16:20:36.227Z,97127.97
2023-05-01T16:23:21.547Z,97135.91
2023-05-01T16:26:07.054Z,97136.22
2023-05-01T16:28:52.427Z,97129.84
2023-05-01T16:31:37.781Z,97128.44
2023-05-01T16:34:23.033Z,97137.69
2023-05-01T16:37:08.235Z,97133.31
2023-05-01T16:39:53.567Z,97134.06
2023-05-01T16:42:38.868Z,97138.88
2023-05-01T16:45:24.114Z,97144.69
2023-05-01T16:48:09.419Z,97147.94
2023-05-01T16:50:54.741Z,97148.41
2023-05-01T16:53:40.000Z,97143.06
2023-05-01T16:56:25.205Z,97150.63
2023-05-01T16:59:10.670Z,97158.28
2023-05-01T17:01:57.051Z,97153.34
2023-05-01T17:04:42.559Z,97161.31
2023-05-01T17:07:27.914Z,97150.38
2023-05-01T17:10:13.220Z,97150.16
2023-05-01T17:12:58.681Z,97150.38
2023-05-01T17:15:44.148Z,97147.31
2023-05-01T17:18:29.389Z,97153.03
2023-05-01T17:21:14.853Z,97153.34
2023-05-01T17:24:00.182Z,97156.09
2023-05-01T17:26:45.277Z,97158.28
2023-05-01T17:29:30.506Z,97155.47
2023-05-01T17:32:20.356Z,97151.75
2023-05-01T17:35:18.526Z,97159.63
2023-05-01T17:38:04.023Z,97154.19
2023-05-01T17:40:49.617Z,97153.09
2023-05-01T17:43:34.840Z,97153.69
2023-05-01T17:46:20.508Z,97157.25
2023-05-01T17:49:05.728Z,97157.50
2023-05-01T17:51:51.012Z,97154.19
2023-05-01T17:54:36.386Z,97151.28
2023-05-01T17:57:21.724Z,97150.97
2023-05-01T18:00:07.152Z,97151.03
2023-05-01T18:02:52.556Z,97149.97
2023-05-01T18:05:37.818Z,97149.97
2023-05-01T18:08:23.166Z,97157.28
2023-05-01T18:11:08.497Z,97159.19
2023-05-01T18:13:53.957Z,97157.53
2023-05-01T18:16:39.239Z,97162.19
2023-05-01T18:19:24.622Z,97163.84
2023-05-01T18:22:10.040Z,97161.38
2023-05-01T18:24:55.468Z,97164.13
2023-05-01T18:27:40.930Z,97169.56
2023-05-01T18:30:26.272Z,97170.63
2023-05-01T18:33:11.679Z,97165.97
2023-05-01T18:35:56.913Z,97175.00
2023-05-01T18:38:42.358Z,97168.75
2023-05-01T18:41:27.858Z,97170.94
2023-05-01T18:44:16.260Z,97176.13
2023-05-01T18:47:01.767Z,97183.22
2023-05-01T18:49:47.137Z,97183.41
2023-05-01T18:52:32.532Z,97186.72
2023-05-01T18:55:17.745Z,97197.63
2023-05-01T18:58:03.042Z,97201.41
2023-05-01T19:00:48.405Z,97200.06
2023-05-01T19:03:33.642Z,97201.66
2023-05-01T19:06:18.788Z,97212.03
2023-05-01T19:09:03.903Z,97215.81
2023-05-01T19:11:49.349Z,97214.72
2023-05-01T19:14:34.745Z,97211.47
2023-05-01T19:17:20.028Z,97213.88
2023-05-01T19:20:05.536Z,97226.19
2023-05-01T19:22:50.938Z,97221.81
2023-05-01T19:25:36.262Z,97217.72
2023-05-01T19:28:22.150Z,97227.25
2023-05-01T19:31:07.764Z,97231.06
2023-05-01T19:33:53.229Z,97234.03
2023-05-01T19:36:38.562Z,97239.19
2023-05-01T19:39:23.674Z,97243.84
2023-05-01T19:42:09.506Z,97240.63
2023-05-01T19:44:57.933Z,97245.72
2023-05-01T19:47:50.015Z,97248.50
2023-05-01T19:50:35.725Z,97241.41
2023-05-01T19:53:21.092Z,97249.31
2023-05-01T19:56:07.691Z,97247.34
2023-05-01T19:58:53.198Z,97251.50
2023-05-01T20:01:38.514Z,97267.53
2023-05-01T20:04:23.792Z,97263.19
2023-05-01T20:07:09.084Z,97273.25
2023-05-01T20:10:00.734Z,97275.38
2023-05-01T20:12:49.784Z,97274.03
2023-05-01T20:15:35.174Z,97286.31
2023-05-01T20:18:20.771Z,97292.53
2023-05-01T20:21:06.556Z,97302.06
2023-05-01T20:23:51.991Z,97310.53
2023-05-01T20:26:36.985Z,97298.28
2023-05-01T20:29:22.369Z,97294.75
2023-05-01T20:32:07.933Z,97305.09
2023-05-01T20:34:53.317Z,97301.84
2023-05-01T20:37:38.694Z,97308.06
2023-05-01T20:40:24.040Z,97314.88
2023-05-01T20:43:09.518Z,97313.78
2023-05-01T20:45:54.901Z,97307.22
2023-05-01T20:48:40.229Z,97306.19
2023-05-01T20:51:25.735Z,97301.56
2023-05-01T20:54:13.161Z,97307.25
2023-05-01T20:56:58.389Z,97305.88
2023-05-01T20:59:43.848Z,97303.44
2023-05-01T21:02:29.165Z,97314.63
2023-05-01T21:05:14.657Z,97307.03
2023-05-01T21:07:59.787Z,97310.25
2023-05-01T21:10:45.115Z,97312.44
2023-05-01T21:13:30.354Z,97311.34
2023-05-01T21:16:15.854Z,97313.00
2023-05-01T21:19:01.135Z,97317.59
2023-05-01T21:21:46.393Z,97314.59
2023-05-01T21:24:31.881Z,97310.25
2023-05-01T21:27:17.135Z,97314.88
2023-05-01T21:30:02.981Z,97321.69
2023-05-01T21:32:48.655Z,97314.91
2023-05-01T21:35:34.008Z,97315.19
2023-05-01T21:38:19.519Z,97317.06
2023-05-01T21:41:04.486Z,97322.25
2023-05-01T21:43:49.348Z,97317.34
2023-05-01T21:46:34.701Z,97320.34
2023-05-01T21:49:20.002Z,97320.34
2023-05-01T21:52:05.193Z,97320.84
2023-05-01T21:54:50.592Z,97323.56
2023-05-01T21:57:35.980Z,97322.53
2023-05-01T22:00:21.374Z,97317.34
2023-05-01T22:03:06.581Z,97322.75
2023-05-01T22:05:51.896Z,97321.97
2023-05-01T22:08:37.273Z,97324.16
2023-05-01T22:11:22.812Z,97324.16
2023-05-01T22:14:07.872Z,97325.25
2023-05-01T22:16:53.397Z,97321.69
2023-05-01T22:19:38.615Z,97326.56
2023-05-01T22:22:23.547Z,97325.78
2023-05-01T22:25:08.909Z,97324.41
2023-05-01T22:27:54.195Z,97323.59
2023-05-01T22:30:39.522Z,97320.06
2023-05-01T22:33:24.973Z,97330.09
2023-05-01T22:36:10.329Z,97328.81
2023-05-01T22:38:55.636Z,97327.41
2023-05-01T22:41:41.001Z,97328.78
2023-05-01T22:44:26.243Z,97330.41
2023-05-01T22:47:11.452Z,97335.28
2023-05-01T22:49:56.976Z,97336.66
2023-05-01T22:52:43.172Z,97335.56
2023-05-01T22:55:29.503Z,97336.38
2023-05-01T22:58:14.824Z,97338.31
2023-05-01T23:01:00.105Z,97341.56
2023-05-01T23:03:45.729Z,97340.47
2023-05-01T23:06:30.807Z,97343.44
2023-05-01T23:09:16.267Z,97344.00
2023-05-01T23:12:01.669Z,97347.00
2023-05-01T23:14:47.293Z,97349.16
2023-05-01T23:17:32.708Z,97340.50
2023-05-01T23:20:18.206Z,97343.75
2023-05-01T23:23:03.668Z,97344.81
2023-05-01T23:25:48.948Z,97348.09
2023-05-01T23:28:34.068Z,97342.09
2023-05-01T23:31:19.509Z,97346.16
2023-05-01T23:34:04.847Z,97349.75
2023-05-01T23:36:51.090Z,97352.44
2023-05-01T23:39:36.359Z,97356.81
2023-05-01T23:42:21.811Z,97348.66
2023-05-01T23:45:07.224Z,97349.19
2023-05-01T23:47:52.557Z,97348.91
2023-05-01T23:50:37.924Z,97351.63
2023-05-01T23:53:23.185Z,97343.75
2023-05-01T23:56:08.185Z,97351.09
2023-05-01T23:58:53.526Z,97336.69
